Etusivu
METAR-TAF:

METAR-TAF

Lentoasemat :

Benton Harbor, Michigan, Yhdysvallat

Leveyspiiri: 42-07-43N, Pituuspiiri: 086-25-42W, korkeus merenpinnasta: 196 m

Tämänhetkinen sää

Tämä raportti tehtiin 35 minuuttia sitten, kello 06.53 UTC
Tuuli 6 kn etelästä/lounaasta
Lämpötila -10°C
Kosteus 52%
Ilmanpaine 1028 hPa
Näkyvyys: 16.1 km
selkeää

METAR: KBEH 130653Z AUTO 20006KT 10SM CLR M10/M18 A3037 RMK AO2 SLP296 T11001178

Aika: 02:28 (07:28 UTC)


TAF: puuttuu

Säähavainnot ja -ennusteet yli 4000 lentoasemalta (METAR- ja TAF-raportit).

Käytössä olevat sääasemat on merkitty karttaan keltaisilla ja punaisilla pisteillä.

Aseta hiiri pisteen päälle nähdäksesi sääaseman nimen.

Klikkaa sitten nähdäksesi säähavainnot ja -ennusteet.

Kartan vaihtaminen: klikkaa mustalla rastilla varustettuja vihreitä pisteitä, niin voit zoomata sisään; viivalla varustettua vihreää pistettä, niin voit zoomata ulos tai vihreitä nuolia, niin pääset viereisille kartoille.


METAR-TAF: